Time;durP1;ratioP1;P1;durP2;ratioP2;P2;SDS_P1;SDS_P2;PMS_P1;PMS_P2;Temp;Humidity;BMP_temperature;BMP_pressure;BME280_temperature;BME280_humidity;BME280_pressure;Samples;Min_cycle;Max_cycle;Signal;HPM_P1;HPM_P2
2021/05/10 00:02:43;;;;;;;3.78;1.38;;;15.00;67.70;;;;;;20919448;28;20084;-60
2021/05/10 00:12:44;;;;;;;4.55;1.40;;;14.90;67.40;;;;;;20925019;28;20064;-60
2021/05/10 00:22:45;;;;;;;5.82;1.80;;;14.80;67.40;;;;;;20939497;28;20149;-60
2021/05/10 00:32:46;;;;;;;4.65;1.40;;;14.70;67.50;;;;;;20924131;28;20091;-59
2021/05/10 00:42:48;;;;;;;3.65;1.52;;;14.70;67.80;;;;;;20922645;28;20480;-60
2021/05/10 00:52:50;;;;;;;2.55;1.55;;;14.60;67.40;;;;;;20921852;28;20081;-60
2021/05/10 01:02:51;;;;;;;5.25;1.80;;;14.40;68.10;;;;;;20921297;28;20439;-60
2021/05/10 01:12:52;;;;;;;4.30;2.20;;;14.30;69.00;;;;;;20920753;28;20077;-61
2021/05/10 01:22:57;;;;;;;3.22;1.80;;;14.20;68.40;;;;;;20919502;28;20130;-61
2021/05/10 01:32:59;;;;;;;;;;;14.10;68.40;;;;;;20919130;28;20130;-61
2021/05/10 01:43:00;;;;;;;6.38;2.38;;;14.00;67.60;;;;;;20917443;28;19935;-60
2021/05/10 01:53:04;;;;;;;5.25;2.45;;;14.00;67.50;;;;;;20917020;28;20095;-61
2021/05/10 02:03:13;;;;;;;7.20;3.58;;;14.10;66.60;;;;;;20917221;28;20442;-60
2021/05/10 02:13:25;;;;;;;3.38;1.23;;;14.10;67.30;;;;;;20915484;28;20056;-60
2021/05/10 02:23:29;;;;;;;4.45;1.40;;;14.10;65.70;;;;;;20914613;28;20067;-60
2021/05/10 02:33:33;;;;;;;3.03;1.00;;;14.10;65.00;;;;;;20915674;28;20060;-59
2021/05/10 02:43:34;;;;;;;1.90;0.85;;;13.80;64.00;;;;;;20912716;28;20155;-61
2021/05/10 02:53:35;;;;;;;3.65;1.02;;;13.70;64.40;;;;;;20912913;28;20041;-62
2021/05/10 03:03:36;;;;;;;4.32;0.90;;;13.70;63.70;;;;;;20912144;28;20049;-59
2021/05/10 03:13:38;;;;;;;4.07;1.30;;;13.70;64.00;;;;;;20911943;28;20455;-58
2021/05/10 03:23:39;;;;;;;3.63;1.05;;;13.50;63.70;;;;;;20912352;28;20053;-59
2021/05/10 03:33:40;;;;;;;4.25;1.52;;;13.60;62.80;;;;;;20914974;28;20049;-60
2021/05/10 03:43:41;;;;;;;4.00;1.00;;;13.40;63.70;;;;;;20925929;28;20147;-59
2021/05/10 03:53:43;;;;;;;4.35;1.23;;;13.50;63.00;;;;;;20928219;28;20080;-59
2021/05/10 04:03:55;;;;;;;2.60;1.08;;;13.30;64.00;;;;;;20925942;28;20071;-61
2021/05/10 04:13:58;;;;;;;4.43;1.33;;;13.20;64.80;;;;;;20925432;28;20052;-59
2021/05/10 04:23:59;;;;;;;3.58;1.40;;;13.00;64.80;;;;;;20924466;28;20084;-59
2021/05/10 04:34:01;;;;;;;6.45;1.58;;;13.00;64.60;;;;;;20918670;28;20053;-59
2021/05/10 04:44:02;;;;;;;4.97;1.58;;;12.80;64.60;;;;;;20917149;28;20055;-59
2021/05/10 04:54:04;;;;;;;4.32;1.70;;;12.50;64.60;;;;;;20917723;28;20052;-61
2021/05/10 05:04:05;;;;;;;7.60;1.75;;;12.60;63.50;;;;;;20918416;28;20053;-61
2021/05/10 05:14:07;;;;;;;4.13;1.55;;;12.40;63.00;;;;;;20916341;28;20073;-61
2021/05/10 05:24:08;;;;;;;5.32;1.77;;;12.40;63.50;;;;;;20915675;28;20049;-60
2021/05/10 05:34:09;;;;;;;9.70;2.20;;;12.30;63.30;;;;;;20894464;28;701592;-61
2021/05/10 05:44:10;;;;;;;10.20;2.30;;;12.20;63.70;;;;;;20919097;28;20053;-61
2021/05/10 05:54:13;;;;;;;6.53;2.08;;;12.30;63.40;;;;;;20917438;28;20453;-58
2021/05/10 06:04:14;;;;;;;9.18;2.17;;;12.40;62.90;;;;;;20917105;28;20540;-61
2021/05/10 06:14:15;;;;;;;8.38;1.90;;;12.30;63.20;;;;;;20917400;28;20137;-58
2021/05/10 06:24:18;;;;;;;10.30;2.55;;;12.40;63.20;;;;;;20914037;28;20078;-59
2021/05/10 06:34:19;;;;;;;5.28;1.90;;;12.70;62.90;;;;;;20914556;28;20068;-59
2021/05/10 06:44:20;;;;;;;8.00;2.92;;;13.00;62.20;;;;;;20913592;28;20049;-59
2021/05/10 06:54:22;;;;;;;8.30;2.00;;;13.70;59.90;;;;;;20928529;28;20521;-60
2021/05/10 07:04:23;;;;;;;12.18;2.67;;;14.70;57.90;;;;;;20912683;28;20486;-61
2021/05/10 07:14:24;;;;;;;9.38;2.17;;;15.10;55.60;;;;;;20912412;28;20449;-61
2021/05/10 07:24:26;;;;;;;8.45;3.40;;;15.70;54.70;;;;;;20911409;28;20106;-60
2021/05/10 07:34:28;;;;;;;9.52;3.10;;;16.20;52.60;;;;;;20911136;28;20068;-59
2021/05/10 07:44:30;;;;;;;10.02;4.65;;;15.60;53.60;;;;;;20910496;28;20103;-60
2021/05/10 07:54:31;;;;;;;11.25;3.25;;;15.70;55.20;;;;;;20911165;28;20119;-60
2021/05/10 08:04:33;;;;;;;8.15;2.63;;;15.90;52.80;;;;;;20910191;28;20052;-59
2021/05/10 08:14:35;;;;;;;5.60;2.40;;;15.80;52.40;;;;;;20909542;28;20064;-60
2021/05/10 08:24:36;;;;;;;7.50;2.63;;;16.20;51.80;;;;;;20920461;28;20052;-61
2021/05/10 08:34:37;;;;;;;10.48;2.20;;;16.60;50.70;;;;;;20923445;28;20409;-60
2021/05/10 08:44:39;;;;;;;6.78;2.42;;;;;;;;;;20923339;28;20072;-61
2021/05/10 08:54:41;;;;;;;8.68;1.90;;;18.70;45.10;;;;;;20920741;28;20049;-61
2021/05/10 09:04:43;;;;;;;11.18;2.50;;;18.10;47.00;;;;;;20921550;28;20053;-59
2021/05/10 09:14:44;;;;;;;10.90;3.63;;;17.90;46.50;;;;;;20876183;28;20441;-59
2021/05/10 09:24:47;;;;;;;9.88;2.25;;;;;;;;;;20845077;28;20073;-58
2021/05/10 09:35:12;;;;;;;9.63;2.50;;;19.90;41.20;;;;;;20843334;28;20056;-58
2021/05/10 09:45:47;;;;;;;8.52;2.55;;;18.60;44.10;;;;;;20840876;28;20050;-58
2021/05/10 09:55:55;;;;;;;7.68;2.10;;;18.60;46.10;;;;;;20846022;28;20539;-60
2021/05/10 10:05:59;;;;;;;7.38;3.22;;;19.10;43.30;;;;;;20836767;28;20210;-57
2021/05/10 10:16:02;;;;;;;11.75;2.67;;;18.90;43.00;;;;;;20838335;28;20049;-58
2021/05/10 10:26:10;;;;;;;7.40;1.83;;;19.40;43.80;;;;;;20831768;28;20049;-56
2021/05/10 10:36:23;;;;;;;5.05;1.77;;;19.60;44.00;;;;;;20832912;28;20140;-58
2021/05/10 10:46:29;;;;;;;5.60;1.73;;;20.50;39.70;;;;;;20830554;28;20050;-57
2021/05/10 10:56:54;;;;;;;6.35;1.77;;;19.70;39.50;;;;;;20829610;28;20057;-64
2021/05/10 11:06:56;;;;;;;6.32;1.70;;;19.80;38.80;;;;;;20829809;28;20053;-57
2021/05/10 11:16:58;;;;;;;6.20;1.63;;;19.70;39.20;;;;;;20829764;28;20132;-61
2021/05/10 11:27:03;;;;;;;3.65;1.10;;;19.70;39.10;;;;;;20856336;28;20053;-63
2021/05/10 11:37:05;;;;;;;6.40;1.77;;;19.70;38.40;;;;;;20909765;28;20060;-58
2021/05/10 11:47:08;;;;;;;4.37;1.33;;;19.60;37.50;;;;;;20910944;28;20417;-71
2021/05/10 11:57:11;;;;;;;4.07;1.40;;;20.00;34.80;;;;;;20918438;28;20053;-70
2021/05/10 12:07:13;;;;;;;4.13;1.05;;;19.70;32.30;;;;;;20926638;28;20045;-59
2021/05/10 12:17:19;;;;;;;3.63;1.27;;;19.80;32.00;;;;;;20909047;28;20159;-70
2021/05/10 12:27:21;;;;;;;3.03;1.35;;;19.70;32.70;;;;;;20924668;28;20057;-70
2021/05/10 12:37:23;;;;;;;4.45;1.27;;;19.90;31.30;;;;;;20924866;28;20060;-70
2021/05/10 12:47:45;;;;;;;5.00;1.27;;;20.00;30.50;;;;;;20922458;28;20075;-71
2021/05/10 12:57:46;;;;;;;4.25;1.30;;;20.20;31.80;;;;;;20922200;28;20103;-69
2021/05/10 13:07:49;;;;;;;3.55;1.40;;;19.80;31.90;;;;;;20921174;28;20049;-69
2021/05/10 13:18:10;;;;;;;6.13;2.15;;;19.60;32.70;;;;;;20919911;28;20088;-70
2021/05/10 13:38:46;;;;;;;6.25;1.73;;;19.70;34.10;;;;;;20920199;28;20131;-70
2021/05/10 13:48:48;;;;;;;3.47;1.50;;;19.80;34.50;;;;;;20924311;28;20095;-70
2021/05/10 13:58:49;;;;;;;5.18;1.80;;;19.90;35.40;;;;;;20919418;28;20045;-64
2021/05/10 14:08:50;;;;;;;5.63;1.85;;;19.90;34.80;;;;;;20918660;28;20045;-61
2021/05/10 14:19:06;;;;;;;4.28;1.70;;;20.00;35.80;;;;;;20917635;28;20413;-67
2021/05/10 14:29:07;;;;;;;5.03;1.67;;;20.30;34.90;;;;;;20918519;28;20049;-68
2021/05/10 14:39:12;;;;;;;5.65;1.77;;;20.30;34.30;;;;;;20914608;28;20049;-64
2021/05/10 14:49:17;;;;;;;5.97;1.65;;;20.30;34.10;;;;;;20915395;28;20424;-70
2021/05/10 14:59:18;;;;;;;3.83;1.30;;;20.20;33.40;;;;;;20913744;28;20152;-67
2021/05/10 15:09:20;;;;;;;4.80;1.40;;;20.00;34.50;;;;;;20914786;28;20053;-70
2021/05/10 15:19:21;;;;;;;3.72;1.25;;;20.20;34.30;;;;;;20914241;28;20132;-68
2021/05/10 15:29:23;;;;;;;4.57;1.45;;;20.30;33.30;;;;;;20917357;28;20106;-60
2021/05/10 15:39:24;;;;;;;2.88;1.17;;;20.40;32.40;;;;;;20928428;28;20080;-70
2021/05/10 15:49:25;;;;;;;5.78;1.40;;;20.50;32.60;;;;;;20926809;28;20458;-64
2021/05/10 15:59:26;;;;;;;3.55;1.70;;;20.40;34.00;;;;;;20925825;28;20134;-61
2021/05/10 16:09:28;;;;;;;3.72;1.35;;;20.40;35.70;;;;;;20925896;28;20045;-75
2021/05/10 16:19:31;;;;;;;42.85;3.78;;;20.30;33.90;;;;;;20924731;28;20068;-64
2021/05/10 16:29:33;;;;;;;18.65;2.80;;;20.20;34.40;;;;;;20921797;28;20056;-60
2021/05/10 16:39:35;;;;;;;5.80;1.60;;;20.10;33.90;;;;;;20921104;28;20405;-64
2021/05/10 16:49:36;;;;;;;6.57;1.77;;;20.10;35.50;;;;;;20920878;28;20049;-61
2021/05/10 16:59:38;;;;;;;6.65;2.97;;;19.90;37.00;;;;;;20922875;28;20055;-64
2021/05/10 17:09:39;;;;;;;22.83;3.90;;;19.70;38.60;;;;;;20921325;28;20152;-62
2021/05/10 17:19:40;;;;;;;7.30;2.58;;;18.90;46.90;;;;;;20918504;28;20151;-68
2021/05/10 17:29:42;;;;;;;8.20;2.10;;;18.40;51.10;;;;;;20919712;28;20060;-59
2021/05/10 17:39:44;;;;;;;8.77;1.65;;;18.70;52.20;;;;;;20918293;28;20477;-62
2021/05/10 17:49:45;;;;;;;9.38;1.95;;;18.80;51.60;;;;;;20916119;28;20053;-61
2021/05/10 17:59:46;;;;;;;7.10;1.50;;;18.50;50.80;;;;;;20916194;28;20436;-59
2021/05/10 18:09:47;;;;;;;25.27;2.72;;;18.30;50.90;;;;;;20915978;28;20041;-61
2021/05/10 18:19:49;;;;;;;7.75;1.52;;;18.50;50.80;;;;;;20915430;28;20052;-64
2021/05/10 18:29:50;;;;;;;6.68;1.50;;;18.00;48.60;;;;;;20914181;28;20073;-61
2021/05/10 18:39:51;;;;;;;19.88;2.63;;;17.50;49.20;;;;;;20913768;28;20048;-62
2021/05/10 18:50:02;;;;;;;2.35;1.00;;;17.70;48.50;;;;;;20912812;28;20060;-68
2021/05/10 19:00:03;;;;;;;3.30;0.90;;;17.60;47.60;;;;;;20911503;28;20080;-65
2021/05/10 19:10:06;;;;;;;2.42;0.80;;;17.70;47.30;;;;;;20912424;28;20049;-67
2021/05/10 19:20:08;;;;;;;1.77;0.88;;;16.50;48.70;;;;;;20911760;28;20052;-62
2021/05/10 19:30:11;;;;;;;1.80;0.98;;;16.00;49.00;;;;;;20911755;28;20049;-68
2021/05/10 19:40:13;;;;;;;1.88;0.85;;;15.90;49.80;;;;;;20912342;28;20056;-65
2021/05/10 20:10:29;;;;;;;2.97;1.10;;;15.40;51.50;;;;;;20910300;28;20044;-65
2021/05/10 20:20:32;;;;;;;2.58;1.10;;;15.30;51.80;;;;;;20921029;28;20057;-62
2021/05/10 20:30:33;;;;;;;2.55;1.17;;;15.10;52.30;;;;;;20924436;28;20098;-65
2021/05/10 20:40:34;;;;;;;2.42;0.93;;;15.00;52.90;;;;;;20924347;28;20048;-64
2021/05/10 20:50:37;;;;;;;1.25;0.90;;;15.00;53.60;;;;;;20923412;28;20092;-67
2021/05/10 21:00:38;;;;;;;1.83;0.90;;;14.90;53.50;;;;;;20922424;28;20079;-65
2021/05/10 21:10:40;;;;;;;2.50;0.85;;;14.80;54.10;;;;;;20922591;28;20045;-63
2021/05/10 21:20:41;;;;;;;2.38;0.95;;;14.80;54.30;;;;;;20919636;28;20136;-62
2021/05/10 21:30:43;;;;;;;1.92;0.95;;;14.60;55.10;;;;;;20919787;28;20079;-63
2021/05/10 21:40:44;;;;;;;2.55;0.70;;;14.50;55.80;;;;;;20919630;28;20053;-67
2021/05/10 21:50:45;;;;;;;3.40;0.82;;;14.20;56.40;;;;;;20919124;28;20080;-62
2021/05/10 22:00:47;;;;;;;2.00;0.88;;;14.10;56.50;;;;;;20919250;28;20059;-65
2021/05/10 22:10:49;;;;;;;1.02;0.60;;;13.80;57.80;;;;;;20918211;28;20048;-65
2021/05/10 22:20:56;;;;;;;2.55;0.80;;;13.90;58.30;;;;;;20916613;28;20413;-65
2021/05/10 22:30:58;;;;;;;2.17;0.70;;;13.80;57.90;;;;;;20915258;28;20091;-65
2021/05/10 23:22:04;;;;;;;3.15;0.80;;;13.20;61.30;;;;;;20821679;28;20131;-66
2021/05/10 23:32:06;;;;;;;1.23;0.60;;;12.90;62.50;;;;;;20843342;28;20457;-67
2021/05/10 23:42:07;;;;;;;1.20;0.60;;;12.70;62.90;;;;;;20912362;28;20405;-67
2021/05/10 23:52:09;;;;;;;3.55;0.70;;;12.70;62.00;;;;;;20918333;28;20482;-67
